createdAt,value
2023-02-19T00:01:10.512Z,11.19
2023-02-19T00:03:38.219Z,11.03
2023-02-19T00:06:06.916Z,10.95
2023-02-19T00:08:35.127Z,11.37
2023-02-19T00:11:07.600Z,11.09
2023-02-19T00:13:38.507Z,11.33
2023-02-19T00:16:15.132Z,11.34
2023-02-19T00:18:43.032Z,11.23
2023-02-19T00:21:10.323Z,11.32
2023-02-19T00:23:37.577Z,11.23
2023-02-19T00:26:17.644Z,11.43
2023-02-19T00:28:46.955Z,11.70
2023-02-19T00:31:18.690Z,11.90
2023-02-19T00:33:47.087Z,11.87
2023-02-19T00:36:14.760Z,11.70
2023-02-19T00:38:42.637Z,11.70
2023-02-19T00:41:19.317Z,11.90
2023-02-19T00:44:03.984Z,11.84
2023-02-19T00:46:59.946Z,12.01
2023-02-19T00:49:26.833Z,12.12
2023-02-19T00:51:53.821Z,12.19
2023-02-19T00:54:22.717Z,12.07
2023-02-19T00:56:49.938Z,11.90
2023-02-19T00:59:17.063Z,12.37
2023-02-19T01:01:47.126Z,12.39
2023-02-19T01:04:14.091Z,12.02
2023-02-19T01:06:41.395Z,12.18
2023-02-19T01:09:08.426Z,12.25
2023-02-19T01:11:35.472Z,12.41
2023-02-19T01:14:03.723Z,12.20
2023-02-19T01:16:31.150Z,12.31
2023-02-19T01:18:58.619Z,12.56
2023-02-19T01:21:26.659Z,12.11
2023-02-19T01:23:54.007Z,12.67
2023-02-19T01:26:22.772Z,12.43
2023-02-19T01:28:49.869Z,12.75
2023-02-19T01:31:19.861Z,12.57
2023-02-19T01:33:48.234Z,12.13
2023-02-19T01:36:16.193Z,12.20
2023-02-19T01:38:43.670Z,12.48
2023-02-19T01:41:13.495Z,12.32
2023-02-19T01:43:58.928Z,12.28
2023-02-19T01:46:27.636Z,12.52
2023-02-19T01:48:55.098Z,12.68
2023-02-19T01:51:22.571Z,12.32
2023-02-19T01:53:53.595Z,12.57
2023-02-19T01:56:20.994Z,12.47
2023-02-19T01:58:47.992Z,12.72
2023-02-19T02:01:15.163Z,12.40
2023-02-19T02:03:43.564Z,12.54
2023-02-19T02:06:22.502Z,12.51
2023-02-19T02:09:13.934Z,12.47
2023-02-19T02:11:44.107Z,12.21
2023-02-19T02:14:11.045Z,12.06
2023-02-19T02:17:11.912Z,12.14
2023-02-19T02:19:47.608Z,12.21
2023-02-19T02:22:33.098Z,12.58
2023-02-19T02:25:18.619Z,12.53
2023-02-19T02:28:07.454Z,12.65
2023-02-19T02:30:42.087Z,12.46
2023-02-19T02:33:21.680Z,12.28
2023-02-19T02:35:57.031Z,12.05
2023-02-19T02:38:26.292Z,12.09
2023-02-19T02:40:54.556Z,12.30
2023-02-19T02:43:21.507Z,12.10
2023-02-19T02:45:48.651Z,12.09
2023-02-19T02:48:35.488Z,12.19
2023-02-19T02:51:05.398Z,12.07
2023-02-19T02:54:00.662Z,11.82
2023-02-19T02:56:27.573Z,11.69
2023-02-19T02:58:56.138Z,11.97
2023-02-19T03:01:48.107Z,11.93
2023-02-19T03:04:58.536Z,11.68
2023-02-19T03:07:27.386Z,12.18
2023-02-19T03:09:54.715Z,11.72
2023-02-19T03:12:41.201Z,11.71
2023-02-19T03:15:28.626Z,12.28
2023-02-19T03:18:18.071Z,12.23
2023-02-19T03:20:48.387Z,11.96
2023-02-19T03:23:17.993Z,11.21
2023-02-19T03:26:03.243Z,10.46
2023-02-19T03:28:51.995Z,10.06
2023-02-19T03:31:21.902Z,9.68
2023-02-19T03:33:54.645Z,9.60
2023-02-19T03:36:26.133Z,9.59
2023-02-19T03:39:16.715Z,9.49
2023-02-19T03:41:49.833Z,9.52
2023-02-19T03:44:37.405Z,9.47
2023-02-19T03:47:20.072Z,9.34
2023-02-19T03:49:57.083Z,9.18
2023-02-19T03:52:42.274Z,8.94
2023-02-19T03:55:13.989Z,8.48
2023-02-19T03:57:52.134Z,8.22
2023-02-19T04:00:41.013Z,8.49
2023-02-19T04:03:29.196Z,8.45
2023-02-19T04:06:01.733Z,8.64
2023-02-19T04:08:29.544Z,8.50
2023-02-19T04:10:58.809Z,8.39
2023-02-19T04:13:46.891Z,8.36
2023-02-19T04:16:19.650Z,8.48
2023-02-19T04:18:49.355Z,8.43
2023-02-19T04:21:16.832Z,8.74
2023-02-19T04:23:45.084Z,8.74
2023-02-19T04:26:12.956Z,8.86
2023-02-19T04:28:40.521Z,8.93
2023-02-19T04:31:07.680Z,8.86
2023-02-19T04:33:34.869Z,8.68
2023-02-19T04:36:01.797Z,8.49
2023-02-19T04:38:28.702Z,8.20
2023-02-19T04:40:55.617Z,8.13
2023-02-19T04:43:22.488Z,8.35
2023-02-19T04:45:49.545Z,8.67
2023-02-19T04:48:16.426Z,8.52
2023-02-19T04:50:43.353Z,8.45
2023-02-19T04:53:10.238Z,8.82
2023-02-19T04:55:38.652Z,9.14
2023-02-19T04:58:05.604Z,8.32
2023-02-19T05:00:34.193Z,8.44
2023-02-19T05:03:01.572Z,8.27
2023-02-19T05:05:28.471Z,8.18
2023-02-19T05:07:55.413Z,7.99
2023-02-19T05:10:22.311Z,8.11
2023-02-19T05:12:49.231Z,8.52
2023-02-19T05:15:16.144Z,8.48
2023-02-19T05:17:43.103Z,8.20
2023-02-19T05:20:10.200Z,7.99
2023-02-19T05:22:37.042Z,7.77
2023-02-19T05:25:04.602Z,7.89
2023-02-19T05:27:32.021Z,8.06
2023-02-19T05:29:59.083Z,8.29
2023-02-19T05:32:26.033Z,8.12
2023-02-19T05:34:52.942Z,8.06
2023-02-19T05:37:19.901Z,7.89
2023-02-19T05:39:46.724Z,8.16
2023-02-19T05:42:13.936Z,8.29
2023-02-19T05:44:40.908Z,8.36
2023-02-19T05:47:07.808Z,8.25
2023-02-19T05:49:34.779Z,7.74
2023-02-19T05:52:01.711Z,8.10
2023-02-19T05:54:29.682Z,8.62
2023-02-19T05:56:56.768Z,8.39
2023-02-19T05:59:25.949Z,8.28
2023-02-19T06:01:54.202Z,8.06
2023-02-19T06:04:21.145Z,8.13
2023-02-19T06:06:48.573Z,8.32
2023-02-19T06:09:15.523Z,8.43
2023-02-19T06:11:43.742Z,8.48
2023-02-19T06:14:13.536Z,8.65
2023-02-19T06:16:40.492Z,8.46
2023-02-19T06:19:07.410Z,8.22
2023-02-19T06:21:34.618Z,8.27
2023-02-19T06:24:07.330Z,8.33
2023-02-19T06:26:34.193Z,8.17
2023-02-19T06:29:00.880Z,8.32
2023-02-19T06:31:27.935Z,8.22
2023-02-19T06:33:55.508Z,8.20
2023-02-19T06:36:22.814Z,8.36
2023-02-19T06:38:49.903Z,8.40
2023-02-19T06:41:17.007Z,8.76
2023-02-19T06:43:43.979Z,8.67
2023-02-19T06:46:12.038Z,9.15
2023-02-19T06:48:40.108Z,9.15
2023-02-19T06:51:06.997Z,9.03
2023-02-19T06:53:33.949Z,8.88
2023-02-19T06:56:06.721Z,8.99
2023-02-19T06:58:34.312Z,8.98
2023-02-19T07:01:01.394Z,8.76
2023-02-19T07:03:28.348Z,9.21
2023-02-19T07:05:55.285Z,9.22
2023-02-19T07:08:22.248Z,8.76
2023-02-19T07:10:56.694Z,8.88
2023-02-19T07:13:24.727Z,8.81
2023-02-19T07:15:52.296Z,8.73
2023-02-19T07:18:19.310Z,8.78
2023-02-19T07:20:46.190Z,8.59
2023-02-19T07:23:13.158Z,8.46
2023-02-19T07:25:40.377Z,8.68
2023-02-19T07:28:07.429Z,8.49
2023-02-19T07:30:34.404Z,8.49
2023-02-19T07:33:01.636Z,8.36
2023-02-19T07:35:28.660Z,8.30
2023-02-19T07:37:55.548Z,8.48
2023-02-19T07:40:22.447Z,8.54
2023-02-19T07:42:49.330Z,8.60
2023-02-19T07:45:16.339Z,8.50
2023-02-19T07:47:43.677Z,8.59
2023-02-19T07:50:13.007Z,8.62
2023-02-19T07:52:40.748Z,8.50
2023-02-19T07:55:07.479Z,8.42
2023-02-19T07:57:34.419Z,8.60
2023-02-19T08:00:01.179Z,8.54
2023-02-19T08:02:46.449Z,8.54
2023-02-19T08:05:14.028Z,8.51
2023-02-19T08:07:40.930Z,8.68
2023-02-19T08:10:26.742Z,8.31
2023-02-19T08:13:16.873Z,8.01
2023-02-19T08:15:44.055Z,8.20
2023-02-19T08:18:11.636Z,8.52
2023-02-19T08:23:06.261Z,8.58
2023-02-19T08:25:33.545Z,8.75
2023-02-19T08:28:00.842Z,8.87
2023-02-19T08:30:29.149Z,8.84
2023-02-19T08:32:56.294Z,9.00
2023-02-19T08:35:23.173Z,8.96
2023-02-19T08:37:50.134Z,9.17
2023-02-19T08:40:17.548Z,8.97
2023-02-19T08:42:44.416Z,8.84
2023-02-19T08:45:11.281Z,8.88
2023-02-19T08:47:38.771Z,8.88
2023-02-19T08:50:07.016Z,8.87
2023-02-19T08:52:34.297Z,9.07
2023-02-19T08:55:02.503Z,9.16
2023-02-19T08:57:29.669Z,9.38
2023-02-19T08:59:57.362Z,9.35
2023-02-19T09:02:25.191Z,9.44
2023-02-19T09:04:52.259Z,9.98
2023-02-19T09:07:19.806Z,10.08
2023-02-19T09:09:46.667Z,9.96
2023-02-19T09:12:13.644Z,9.71
2023-02-19T09:14:40.691Z,9.70
2023-02-19T09:17:08.493Z,10.03
2023-02-19T09:19:35.794Z,9.98
2023-02-19T09:22:03.530Z,10.20
2023-02-19T09:24:31.012Z,10.31
2023-02-19T09:26:58.065Z,10.18
2023-02-19T09:29:26.177Z,10.29
2023-02-19T09:31:59.576Z,10.29
2023-02-19T09:34:27.813Z,10.33
2023-02-19T09:36:55.266Z,10.63
2023-02-19T09:39:22.458Z,10.46
2023-02-19T09:41:52.476Z,10.75
2023-02-19T09:44:36.022Z,10.81
2023-02-19T09:47:09.592Z,11.19
2023-02-19T09:49:41.005Z,11.33
2023-02-19T09:52:12.609Z,11.48
2023-02-19T09:54:39.916Z,11.78
2023-02-19T09:57:14.304Z,11.29
2023-02-19T09:59:45.953Z,11.55
2023-02-19T10:02:19.425Z,12.03
2023-02-19T10:04:47.781Z,12.42
2023-02-19T10:07:16.178Z,12.65
2023-02-19T10:09:46.025Z,12.78
2023-02-19T10:12:18.552Z,13.09
2023-02-19T10:14:51.693Z,12.90
2023-02-19T10:17:24.490Z,13.20
2023-02-19T10:19:52.302Z,13.57
2023-02-19T10:22:19.956Z,14.18
2023-02-19T10:24:51.897Z,14.89
2023-02-19T10:27:19.300Z,14.97
2023-02-19T10:29:48.267Z,14.77
2023-02-19T10:32:24.369Z,15.05
2023-02-19T10:35:26.551Z,15.17
2023-02-19T10:37:53.428Z,16.16
2023-02-19T10:40:22.899Z,16.40
2023-02-19T10:42:56.596Z,16.52
2023-02-19T10:45:26.665Z,16.78
2023-02-19T10:47:53.570Z,17.18
2023-02-19T10:50:30.490Z,16.84
2023-02-19T10:52:58.931Z,16.93
2023-02-19T10:55:29.111Z,17.24
2023-02-19T10:57:56.742Z,17.05
2023-02-19T11:00:27.568Z,16.62
2023-02-19T11:03:15.175Z,17.04
2023-02-19T11:05:51.924Z,17.40
2023-02-19T11:08:22.945Z,17.60
2023-02-19T11:10:50.169Z,17.64
2023-02-19T11:13:30.575Z,17.47
2023-02-19T11:15:57.699Z,17.55
2023-02-19T11:18:29.799Z,17.22
2023-02-19T11:21:05.033Z,17.64
2023-02-19T11:23:33.275Z,18.20
2023-02-19T11:26:04.364Z,18.60
2023-02-19T11:28:40.509Z,19.04
2023-02-19T11:31:16.446Z,19.26
2023-02-19T11:33:53.824Z,19.08
2023-02-19T11:36:23.483Z,19.07
2023-02-19T11:38:50.435Z,19.28
2023-02-19T11:41:26.645Z,19.18
2023-02-19T11:44:05.698Z,18.88
2023-02-19T11:46:42.074Z,18.46
2023-02-19T11:49:26.429Z,18.76
2023-02-19T11:52:08.794Z,18.26
2023-02-19T11:54:48.815Z,18.13
2023-02-19T11:57:21.670Z,18.12
2023-02-19T11:59:56.195Z,18.22
2023-02-19T12:02:28.650Z,18.23
2023-02-19T12:05:12.029Z,17.69
2023-02-19T12:08:03.926Z,16.78
2023-02-19T12:10:36.702Z,17.41
2023-02-19T12:13:25.379Z,17.38
2023-02-19T12:16:25.789Z,17.84
2023-02-19T12:18:58.563Z,17.47
2023-02-19T12:21:25.358Z,17.79
2023-02-19T12:24:12.035Z,17.59
2023-02-19T12:27:00.375Z,17.49
2023-02-19T12:29:47.151Z,17.34
2023-02-19T12:32:26.118Z,17.01
2023-02-19T12:35:16.300Z,16.54
2023-02-19T12:38:04.779Z,15.99
2023-02-19T12:40:31.553Z,16.00
2023-02-19T12:43:10.154Z,15.54
2023-02-19T12:45:39.258Z,15.79
2023-02-19T12:48:27.284Z,15.69
2023-02-19T12:50:58.161Z,15.15
2023-02-19T12:53:45.834Z,14.59
2023-02-19T12:56:21.480Z,14.23
2023-02-19T12:58:55.264Z,14.28
2023-02-19T13:01:32.970Z,14.19
2023-02-19T13:04:17.741Z,14.40
2023-02-19T13:07:13.499Z,14.58
2023-02-19T13:09:53.497Z,14.95
2023-02-19T13:12:25.334Z,14.74
2023-02-19T13:15:01.054Z,14.13
2023-02-19T13:17:47.137Z,14.03
2023-02-19T13:20:27.611Z,14.36
2023-02-19T13:23:33.497Z,13.72
2023-02-19T13:26:12.033Z,13.60
2023-02-19T13:29:07.809Z,13.88
2023-02-19T13:32:02.662Z,14.22
2023-02-19T13:35:04.753Z,14.28
2023-02-19T13:37:35.338Z,14.37
2023-02-19T13:40:31.808Z,14.68
2023-02-19T13:43:00.981Z,15.05
2023-02-19T13:45:36.789Z,15.03
2023-02-19T13:48:23.865Z,15.14
2023-02-19T13:51:13.624Z,15.14
2023-02-19T13:53:46.254Z,15.34
2023-02-19T13:56:34.458Z,15.10
2023-02-19T13:59:19.997Z,15.23
2023-02-19T14:01:49.744Z,15.02
2023-02-19T14:04:23.821Z,14.74
2023-02-19T14:07:06.141Z,15.04
2023-02-19T14:09:43.984Z,15.11
2023-02-19T14:12:10.837Z,14.90
2023-02-19T14:14:41.858Z,15.02
2023-02-19T14:17:08.694Z,15.04
2023-02-19T14:19:41.570Z,14.98
2023-02-19T14:23:03.553Z,15.15
2023-02-19T14:25:49.660Z,15.17
2023-02-19T14:28:30.162Z,15.16
2023-02-19T14:31:18.119Z,14.87
2023-02-19T14:33:49.062Z,15.00
2023-02-19T14:36:48.910Z,14.98
2023-02-19T14:39:15.837Z,15.10
2023-02-19T14:41:46.236Z,14.99
2023-02-19T14:44:18.604Z,15.14
2023-02-19T14:47:14.083Z,15.05
2023-02-19T14:49:51.796Z,14.87
2023-02-19T14:52:28.515Z,14.86
2023-02-19T14:54:59.132Z,14.77
2023-02-19T14:57:46.813Z,14.63
2023-02-19T15:00:22.391Z,14.50
2023-02-19T15:02:53.349Z,14.67
2023-02-19T15:05:31.414Z,14.83
2023-02-19T15:08:00.689Z,14.84
2023-02-19T15:10:29.112Z,14.31
2023-02-19T15:13:05.155Z,14.36
2023-02-19T15:15:35.615Z,14.39
2023-02-19T15:18:04.003Z,13.90
2023-02-19T15:20:36.407Z,13.93
2023-02-19T15:23:06.329Z,13.97
2023-02-19T15:25:43.359Z,13.99
2023-02-19T15:28:25.587Z,13.63
2023-02-19T15:31:07.837Z,13.61
2023-02-19T15:33:35.099Z,13.66
2023-02-19T15:36:05.637Z,13.88
2023-02-19T15:38:33.627Z,13.56
2023-02-19T15:41:01.457Z,13.72
2023-02-19T15:43:44.598Z,13.85
2023-02-19T15:46:22.073Z,13.76
2023-02-19T15:49:16.387Z,13.70
2023-02-19T15:51:57.027Z,13.71
2023-02-19T15:54:29.524Z,13.67
2023-02-19T15:57:00.512Z,13.69
2023-02-19T15:59:36.955Z,13.59
2023-02-19T16:02:04.574Z,13.74
2023-02-19T16:04:31.603Z,13.90
2023-02-19T16:07:01.308Z,13.69
2023-02-19T16:09:37.233Z,13.56
2023-02-19T16:12:20.372Z,13.88
2023-02-19T16:14:47.451Z,13.87
2023-02-19T16:17:18.321Z,13.47
2023-02-19T16:20:02.260Z,13.72
2023-02-19T16:22:31.348Z,13.60
2023-02-19T16:25:03.984Z,13.79
2023-02-19T16:27:38.776Z,13.65
2023-02-19T16:30:19.063Z,13.59
2023-02-19T16:32:47.041Z,13.54
2023-02-19T16:35:42.413Z,13.47
2023-02-19T16:38:27.327Z,13.40
2023-02-19T16:41:05.610Z,13.12
2023-02-19T16:43:41.023Z,13.06
2023-02-19T16:46:10.526Z,13.15
2023-02-19T16:48:37.659Z,13.27
2023-02-19T16:51:08.633Z,13.19
2023-02-19T16:53:35.749Z,12.84
2023-02-19T16:56:02.755Z,13.04
2023-02-19T16:58:29.667Z,12.93
2023-02-19T17:00:56.693Z,13.12
2023-02-19T17:03:25.083Z,13.24
2023-02-19T17:05:52.573Z,13.08
2023-02-19T17:08:37.830Z,12.56
2023-02-19T17:11:07.806Z,12.66
2023-02-19T17:13:34.791Z,12.07
2023-02-19T17:16:02.129Z,12.34
2023-02-19T17:18:29.493Z,11.97
2023-02-19T17:21:14.986Z,11.86
2023-02-19T17:23:42.036Z,11.75
2023-02-19T17:26:14.715Z,11.82
2023-02-19T17:28:41.632Z,11.69
2023-02-19T17:31:11.108Z,11.51
2023-02-19T17:33:38.816Z,11.41
2023-02-19T17:36:06.211Z,11.17
2023-02-19T17:38:33.081Z,11.06
2023-02-19T17:40:59.967Z,10.95
2023-02-19T17:43:26.838Z,10.79
2023-02-19T17:45:53.762Z,10.93
2023-02-19T17:48:20.630Z,10.66
2023-02-19T17:50:49.426Z,10.58
2023-02-19T17:53:16.487Z,10.43
2023-02-19T17:55:43.375Z,10.26
2023-02-19T17:58:10.383Z,10.38
2023-02-19T18:00:37.526Z,10.02
2023-02-19T18:03:04.994Z,9.83
2023-02-19T18:05:31.894Z,9.68
2023-02-19T18:07:58.928Z,9.90
2023-02-19T18:10:25.798Z,9.75
2023-02-19T18:12:52.880Z,9.56
2023-02-19T18:15:26.993Z,9.50
2023-02-19T18:17:54.844Z,9.39
2023-02-19T18:20:23.888Z,9.48
2023-02-19T18:22:51.191Z,9.40
2023-02-19T18:25:18.872Z,9.12
2023-02-19T18:27:45.789Z,9.05
2023-02-19T18:30:15.704Z,9.09
2023-02-19T18:32:42.808Z,9.03
2023-02-19T18:35:09.917Z,9.03
2023-02-19T18:37:36.978Z,9.04
2023-02-19T18:40:05.050Z,9.04
2023-02-19T18:42:31.976Z,9.14
2023-02-19T18:44:59.314Z,8.90
2023-02-19T18:47:26.812Z,8.61
2023-02-19T18:49:55.457Z,8.82
2023-02-19T18:52:26.590Z,8.50
2023-02-19T18:54:55.264Z,8.49
2023-02-19T18:57:23.419Z,8.35
2023-02-19T18:59:50.590Z,8.56
2023-02-19T19:02:18.167Z,8.25
2023-02-19T19:04:49.540Z,8.47
2023-02-19T19:07:16.541Z,8.47
2023-02-19T19:09:43.442Z,8.55
2023-02-19T19:12:10.326Z,8.26
2023-02-19T19:14:37.579Z,8.46
2023-02-19T19:17:04.534Z,8.19
2023-02-19T19:19:31.585Z,8.04
2023-02-19T19:21:58.480Z,8.05
2023-02-19T19:24:25.583Z,8.06
2023-02-19T19:26:53.716Z,8.03
2023-02-19T19:29:22.244Z,7.89
2023-02-19T19:31:49.728Z,7.86
2023-02-19T19:34:17.218Z,7.77
2023-02-19T19:36:44.126Z,7.94
2023-02-19T19:39:11.018Z,7.94
2023-02-19T19:41:37.908Z,7.82
2023-02-19T19:44:05.961Z,7.83
2023-02-19T19:46:33.718Z,7.91
2023-02-19T19:49:02.509Z,7.92
2023-02-19T19:51:35.438Z,7.96
2023-02-19T19:54:04.233Z,7.80
2023-02-19T19:56:31.617Z,7.69
2023-02-19T19:58:58.519Z,7.76
2023-02-19T20:01:25.449Z,7.51
2023-02-19T20:03:52.387Z,7.74
2023-02-19T20:06:27.421Z,7.63
2023-02-19T20:08:54.729Z,7.52
2023-02-19T20:11:21.625Z,7.32
2023-02-19T20:13:48.609Z,7.56
2023-02-19T20:16:15.674Z,7.72
2023-02-19T20:18:42.584Z,7.65
2023-02-19T20:21:10.462Z,7.53
2023-02-19T20:23:40.553Z,7.40
2023-02-19T20:26:07.865Z,7.42
2023-02-19T20:28:34.697Z,7.58
2023-02-19T20:31:01.430Z,7.59
2023-02-19T20:33:28.320Z,7.44
2023-02-19T20:35:57.119Z,7.65
2023-02-19T20:38:24.070Z,7.64
2023-02-19T20:40:51.105Z,7.77
2023-02-19T20:43:18.025Z,7.46
2023-02-19T20:45:46.643Z,7.53
2023-02-19T20:48:18.025Z,7.60
2023-02-19T20:50:44.916Z,7.40
2023-02-19T20:53:12.128Z,7.28
2023-02-19T20:55:39.179Z,7.38
2023-02-19T20:58:06.116Z,7.30
2023-02-19T21:00:32.966Z,7.00
2023-02-19T21:02:59.622Z,7.06
2023-02-19T21:05:26.541Z,7.34
2023-02-19T21:07:53.459Z,7.13
2023-02-19T21:10:20.358Z,7.25
2023-02-19T21:12:47.237Z,7.16
2023-02-19T21:15:14.930Z,7.22
2023-02-19T21:17:45.046Z,7.37
2023-02-19T21:20:12.201Z,7.17
2023-02-19T21:22:39.078Z,7.09
2023-02-19T21:25:06.397Z,7.11
2023-02-19T21:27:33.260Z,7.09
2023-02-19T21:29:59.915Z,7.17
2023-02-19T21:32:26.969Z,6.85
2023-02-19T21:34:53.990Z,6.83
2023-02-19T21:37:20.918Z,6.75
2023-02-19T21:39:47.808Z,7.01
2023-02-19T21:42:14.688Z,6.88
2023-02-19T21:44:43.074Z,6.74
2023-02-19T21:47:11.761Z,7.02
2023-02-19T21:49:38.771Z,6.86
2023-02-19T21:52:05.636Z,6.87
2023-02-19T21:54:32.532Z,6.82
2023-02-19T21:57:02.221Z,6.76
2023-02-19T21:59:29.109Z,6.85
2023-02-19T22:01:57.254Z,6.91
2023-02-19T22:04:27.512Z,6.66
2023-02-19T22:06:57.525Z,6.43
2023-02-19T22:09:24.470Z,6.53
2023-02-19T22:11:51.435Z,6.55
2023-02-19T22:14:18.388Z,6.48
2023-02-19T22:16:45.317Z,6.44
2023-02-19T22:19:12.999Z,6.50
2023-02-19T22:21:43.318Z,6.60
2023-02-19T22:24:15.144Z,6.36
2023-02-19T22:26:42.731Z,6.25
2023-02-19T22:29:11.518Z,6.14
2023-02-19T22:31:38.741Z,5.97
2023-02-19T22:34:05.794Z,6.05
2023-02-19T22:36:33.696Z,5.96
2023-02-19T22:39:01.575Z,6.15
2023-02-19T22:41:28.759Z,5.98
2023-02-19T22:43:56.470Z,5.96
2023-02-19T22:46:25.204Z,6.01
2023-02-19T22:48:52.062Z,5.91
2023-02-19T22:51:20.046Z,6.01
2023-02-19T22:53:47.439Z,5.81
2023-02-19T22:56:16.078Z,5.86
2023-02-19T22:58:43.633Z,5.92
2023-02-19T23:01:12.190Z,5.66
2023-02-19T23:03:50.018Z,5.91
2023-02-19T23:06:17.837Z,5.67
2023-02-19T23:08:44.824Z,5.66
2023-02-19T23:11:13.333Z,5.70
2023-02-19T23:13:43.086Z,5.90
2023-02-19T23:16:10.239Z,5.82
2023-02-19T23:18:37.346Z,5.73
2023-02-19T23:21:04.337Z,5.78
2023-02-19T23:23:31.239Z,5.79
2023-02-19T23:25:58.110Z,5.85
2023-02-19T23:28:25.051Z,5.75
2023-02-19T23:30:52.054Z,5.60
2023-02-19T23:33:18.955Z,5.50
2023-02-19T23:35:45.638Z,5.79
2023-02-19T23:38:12.651Z,5.79
2023-02-19T23:40:39.551Z,5.68
2023-02-19T23:43:06.476Z,5.69
2023-02-19T23:45:33.370Z,5.90
2023-02-19T23:48:00.394Z,6.03
2023-02-19T23:50:27.277Z,6.08
2023-02-19T23:52:56.472Z,5.62
2023-02-19T23:55:23.518Z,5.76
2023-02-19T23:57:52.180Z,5.86
